createdAt,value
2018-01-07T00:01:54.060Z,11.10
2018-01-07T00:04:21.191Z,11.10
2018-01-07T00:06:47.950Z,11.10
2018-01-07T00:09:21.404Z,11.10
2018-01-07T00:11:51.244Z,11.10
2018-01-07T00:14:17.947Z,11.00
2018-01-07T00:16:44.761Z,11.00
2018-01-07T00:19:11.562Z,11.00
2018-01-07T00:21:38.272Z,11.00
2018-01-07T00:24:05.049Z,11.00
2018-01-07T00:29:20.790Z,11.00
2018-01-07T00:34:26.453Z,11.00
2018-01-07T00:36:53.261Z,11.00
2018-01-07T00:39:19.944Z,11.00
2018-01-07T00:41:46.733Z,10.90
2018-01-07T00:44:20.934Z,10.90
2018-01-07T00:46:51.333Z,10.90
2018-01-07T00:49:18.055Z,10.90
2018-01-07T00:51:44.762Z,10.90
2018-01-07T00:54:11.450Z,10.90
2018-01-07T00:56:39.297Z,10.90
2018-01-07T00:59:09.323Z,10.90
2018-01-07T01:01:35.983Z,10.90
2018-01-07T01:04:02.651Z,10.90
2018-01-07T01:06:30.239Z,10.90
2018-01-07T01:08:56.992Z,10.90
2018-01-07T01:11:23.732Z,10.90
2018-01-07T01:13:51.217Z,10.90
2018-01-07T01:16:17.891Z,10.90
2018-01-07T01:18:44.554Z,10.90
2018-01-07T01:21:11.326Z,10.90
2018-01-07T01:23:38.026Z,10.90
2018-01-07T01:26:04.776Z,10.90
2018-01-07T01:28:33.360Z,10.80
2018-01-07T01:31:00.125Z,10.80
2018-01-07T01:33:27.419Z,10.80
2018-01-07T01:35:57.266Z,10.80
2018-01-07T01:38:23.913Z,10.80
2018-01-07T01:40:51.361Z,10.80
2018-01-07T01:43:26.790Z,10.80
2018-01-07T01:45:57.362Z,10.80
2018-01-07T01:48:27.243Z,10.80
2018-01-07T01:51:02.901Z,10.80
2018-01-07T01:53:38.973Z,10.80
2018-01-07T01:56:05.634Z,10.80
2018-01-07T01:58:33.303Z,10.80
2018-01-07T02:00:59.965Z,10.80
2018-01-07T02:03:27.383Z,10.80
2018-01-07T02:08:32.903Z,10.80
2018-01-07T02:10:59.713Z,10.70
2018-01-07T02:13:27.212Z,10.70
2018-01-07T02:15:53.899Z,10.70
2018-01-07T02:18:20.580Z,10.70
2018-01-07T02:20:47.317Z,10.70
2018-01-07T02:23:15.447Z,10.70
2018-01-07T02:25:42.133Z,10.70
2018-01-07T02:28:08.910Z,10.70
2018-01-07T02:30:39.420Z,10.70
2018-01-07T02:33:09.342Z,10.70
2018-01-07T02:35:35.982Z,10.70
2018-01-07T02:38:02.646Z,10.70
2018-01-07T02:40:29.327Z,10.70
2018-01-07T02:42:56.118Z,10.70
2018-01-07T02:45:22.961Z,10.70
2018-01-07T02:47:49.770Z,10.70
2018-01-07T02:50:16.423Z,10.70
2018-01-07T02:52:43.075Z,10.70
2018-01-07T02:55:09.738Z,10.70
2018-01-07T02:57:36.539Z,10.70
2018-01-07T03:00:03.194Z,10.70
2018-01-07T03:05:09.129Z,10.70
2018-01-07T03:07:35.771Z,10.70
2018-01-07T03:10:02.438Z,10.70
2018-01-07T03:12:29.251Z,10.60
2018-01-07T03:14:55.953Z,10.60
2018-01-07T03:17:22.711Z,10.60
2018-01-07T03:19:49.382Z,10.60
2018-01-07T03:22:16.059Z,10.60
2018-01-07T03:24:42.843Z,10.60
2018-01-07T03:27:09.525Z,10.60
2018-01-07T03:29:36.328Z,10.60
2018-01-07T03:32:02.980Z,10.60
2018-01-07T03:34:33.292Z,10.60
2018-01-07T03:37:00.352Z,10.60
2018-01-07T03:39:27.030Z,10.60
2018-01-07T03:41:53.819Z,10.60
2018-01-07T03:44:21.475Z,10.60
2018-01-07T03:46:48.131Z,10.50
2018-01-07T03:49:14.911Z,10.50
2018-01-07T03:51:41.623Z,10.50
2018-01-07T03:54:08.414Z,10.50
2018-01-07T03:56:35.060Z,10.50
2018-01-07T03:59:01.728Z,10.50
2018-01-07T04:01:38.942Z,10.50
2018-01-07T04:04:05.622Z,10.50
2018-01-07T04:06:32.253Z,10.50
2018-01-07T04:09:03.410Z,10.50
2018-01-07T04:14:09.211Z,10.50
2018-01-07T04:16:39.249Z,10.50
2018-01-07T04:19:09.439Z,10.50
2018-01-07T04:21:39.274Z,10.50
2018-01-07T04:24:06.002Z,10.50
2018-01-07T04:26:38.910Z,10.50
2018-01-07T04:29:05.587Z,10.50
2018-01-07T04:31:44.865Z,10.50
2018-01-07T04:34:20.942Z,10.50
2018-01-07T04:36:47.592Z,10.50
2018-01-07T04:39:14.253Z,10.50
2018-01-07T04:41:50.880Z,10.50
2018-01-07T04:44:17.523Z,10.40
2018-01-07T04:46:45.417Z,10.50
2018-01-07T04:49:12.066Z,10.40
2018-01-07T04:51:38.730Z,10.50
2018-01-07T04:54:05.491Z,10.40
2018-01-07T04:56:32.154Z,10.40
2018-01-07T04:59:03.483Z,10.40
2018-01-07T05:01:30.156Z,10.40
2018-01-07T05:03:56.951Z,10.40
2018-01-07T05:06:23.632Z,10.40
2018-01-07T05:08:50.303Z,10.40
2018-01-07T05:11:26.978Z,10.40
2018-01-07T05:13:53.819Z,10.40
2018-01-07T05:16:20.578Z,10.40
2018-01-07T05:18:47.252Z,10.40
2018-01-07T05:21:13.945Z,10.40
2018-01-07T05:23:40.701Z,10.40
2018-01-07T05:26:07.366Z,10.40
2018-01-07T05:28:39.398Z,10.40
2018-01-07T05:31:06.141Z,10.40
2018-01-07T05:33:32.782Z,10.40
2018-01-07T05:35:59.450Z,10.40
2018-01-07T05:38:27.510Z,10.40
2018-01-07T05:40:54.590Z,10.40
2018-01-07T05:43:21.421Z,10.40
2018-01-07T05:45:51.589Z,10.40
2018-01-07T05:48:18.333Z,10.40
2018-01-07T05:50:45.031Z,10.40
2018-01-07T05:53:21.118Z,10.40
2018-01-07T05:55:47.904Z,10.40
2018-01-07T05:58:15.324Z,10.40
2018-01-07T06:00:42.019Z,10.40
2018-01-07T06:03:09.083Z,10.30
2018-01-07T06:08:14.918Z,10.30
2018-01-07T06:10:45.303Z,10.30
2018-01-07T06:13:15.460Z,10.30
2018-01-07T06:15:42.094Z,10.30
2018-01-07T06:18:08.757Z,10.30
2018-01-07T06:20:39.433Z,10.30
2018-01-07T06:23:06.149Z,10.30
2018-01-07T06:25:32.899Z,10.30
2018-01-07T06:27:59.584Z,10.30
2018-01-07T06:30:27.417Z,10.30
2018-01-07T06:32:54.082Z,10.30
2018-01-07T06:35:21.530Z,10.30
2018-01-07T06:37:48.178Z,10.30
2018-01-07T06:40:14.910Z,10.30
2018-01-07T06:42:41.631Z,10.30
2018-01-07T06:45:08.282Z,10.30
2018-01-07T06:47:39.410Z,10.30
2018-01-07T06:50:09.578Z,10.30
2018-01-07T06:52:36.221Z,10.30
2018-01-07T06:55:03.036Z,10.30
2018-01-07T06:57:39.056Z,10.30
2018-01-07T07:00:05.761Z,10.30
2018-01-07T07:02:33.355Z,10.30
2018-01-07T07:05:09.010Z,10.30
2018-01-07T07:07:35.660Z,10.20
2018-01-07T07:10:02.327Z,10.30
2018-01-07T07:15:09.472Z,10.20
2018-01-07T07:17:39.406Z,10.20
2018-01-07T07:20:06.063Z,10.30
2018-01-07T07:22:44.941Z,10.20
2018-01-07T07:25:11.578Z,10.20
2018-01-07T07:27:38.256Z,10.20
2018-01-07T07:30:04.904Z,10.20
2018-01-07T07:35:10.422Z,10.20
2018-01-07T07:37:37.115Z,10.20
2018-01-07T07:40:03.938Z,10.20
2018-01-07T07:42:30.601Z,10.20
2018-01-07T07:44:57.414Z,10.30
2018-01-07T07:47:24.118Z,10.20
2018-01-07T07:49:50.846Z,10.20
2018-01-07T07:52:17.485Z,10.20
2018-01-07T07:54:44.157Z,10.20
2018-01-07T07:57:10.988Z,10.20
2018-01-07T07:59:39.505Z,10.20
2018-01-07T08:02:06.185Z,10.20
2018-01-07T08:04:32.939Z,10.20
2018-01-07T08:06:59.577Z,10.20
2018-01-07T08:09:26.257Z,10.20
2018-01-07T08:11:52.889Z,10.20
2018-01-07T08:14:19.577Z,10.20
2018-01-07T08:16:46.313Z,10.20
2018-01-07T08:19:12.991Z,10.20
2018-01-07T08:21:51.054Z,10.20
2018-01-07T08:24:17.758Z,10.10
2018-01-07T08:26:44.419Z,10.20
2018-01-07T08:29:11.165Z,10.20
2018-01-07T08:31:39.470Z,10.10
2018-01-07T08:34:09.639Z,10.10
2018-01-07T08:36:39.490Z,10.10
2018-01-07T08:39:06.134Z,10.20
2018-01-07T08:41:32.811Z,10.10
2018-01-07T08:43:59.479Z,10.10
2018-01-07T08:46:26.290Z,10.10
2018-01-07T08:51:32.246Z,10.10
2018-01-07T08:53:58.880Z,10.10
2018-01-07T08:56:25.572Z,10.10
2018-01-07T08:58:52.394Z,10.10
2018-01-07T09:01:19.194Z,10.10
2018-01-07T09:03:51.597Z,10.10
2018-01-07T09:06:18.385Z,10.10
2018-01-07T09:08:45.064Z,10.10
2018-01-07T09:11:11.704Z,10.10
2018-01-07T09:13:45.034Z,10.10
2018-01-07T09:16:11.714Z,10.10
2018-01-07T09:18:38.392Z,10.10
2018-01-07T09:21:05.160Z,10.10
2018-01-07T09:23:31.828Z,10.10
2018-01-07T09:25:58.475Z,10.10
2018-01-07T09:28:27.558Z,10.10
2018-01-07T09:30:54.219Z,10.10
2018-01-07T09:33:20.875Z,10.10
2018-01-07T09:35:47.897Z,10.10
2018-01-07T09:38:27.169Z,10.10
2018-01-07T09:40:53.843Z,10.10
2018-01-07T09:43:21.474Z,10.10
2018-01-07T09:45:49.200Z,10.10
2018-01-07T09:48:15.851Z,10.10
2018-01-07T09:50:42.644Z,10.10
2018-01-07T09:53:09.287Z,10.10
2018-01-07T09:55:35.982Z,10.00
2018-01-07T09:58:02.724Z,10.10
2018-01-07T10:03:15.057Z,10.10
2018-01-07T10:08:20.230Z,10.00
2018-01-07T10:16:04.542Z,10.00
2018-01-07T10:18:31.225Z,10.00
2018-01-07T10:21:09.022Z,10.00
2018-01-07T10:23:35.674Z,10.10
2018-01-07T10:26:03.549Z,10.00
2018-01-07T10:28:39.227Z,10.00
2018-01-07T10:31:06.279Z,10.00
2018-01-07T10:33:32.956Z,10.00
2018-01-07T10:35:59.684Z,10.00
2018-01-07T10:38:26.403Z,10.00
2018-01-07T10:40:53.120Z,10.00
2018-01-07T10:43:19.811Z,10.00
2018-01-07T10:45:46.523Z,10.00
2018-01-07T10:48:13.320Z,10.00
2018-01-07T10:50:40.148Z,10.00
2018-01-07T10:53:09.669Z,10.00
2018-01-07T10:55:36.442Z,10.00
2018-01-07T10:58:03.475Z,10.00
2018-01-07T11:00:36.014Z,10.00
2018-01-07T11:03:02.694Z,10.00
2018-01-07T11:05:29.368Z,10.00
2018-01-07T11:07:56.030Z,10.00
2018-01-07T11:10:27.556Z,10.00
2018-01-07T11:12:54.197Z,10.00
2018-01-07T11:15:20.853Z,10.00
2018-01-07T11:17:47.532Z,10.00
2018-01-07T11:20:14.289Z,10.00
2018-01-07T11:22:41.132Z,10.00
2018-01-07T11:25:09.617Z,9.90
2018-01-07T11:27:36.317Z,10.00
2018-01-07T11:30:03.314Z,10.00
2018-01-07T11:35:08.492Z,10.00
2018-01-07T11:37:35.146Z,9.90
2018-01-07T11:40:01.901Z,9.90
2018-01-07T11:42:33.686Z,10.00
2018-01-07T11:45:03.586Z,9.90
2018-01-07T11:47:30.308Z,10.00
2018-01-07T11:49:57.101Z,10.00
2018-01-07T11:52:23.826Z,10.10
2018-01-07T11:54:50.528Z,10.20
2018-01-07T11:57:17.678Z,10.40
2018-01-07T11:59:44.528Z,10.40
2018-01-07T12:02:11.293Z,10.50
2018-01-07T12:04:37.935Z,10.60
2018-01-07T12:07:04.570Z,10.70
2018-01-07T12:09:31.296Z,10.90
2018-01-07T12:14:36.541Z,11.00
2018-01-07T12:17:03.753Z,11.20
2018-01-07T12:19:30.428Z,11.30
2018-01-07T12:21:57.696Z,11.30
2018-01-07T12:24:24.371Z,11.40
2018-01-07T12:26:51.010Z,11.40
2018-01-07T12:31:56.716Z,11.50
2018-01-07T12:34:23.355Z,11.60
2018-01-07T12:36:50.059Z,11.70
2018-01-07T12:39:16.913Z,11.60
2018-01-07T12:41:43.675Z,11.70
2018-01-07T12:44:10.332Z,11.70
2018-01-07T12:46:36.980Z,11.70
2018-01-07T12:51:42.758Z,11.70
2018-01-07T12:54:09.817Z,12.00
2018-01-07T12:56:39.718Z,12.00
2018-01-07T12:59:06.418Z,12.00
2018-01-07T13:01:33.185Z,12.10
2018-01-07T13:04:03.681Z,12.10
2018-01-07T13:06:30.353Z,12.10
2018-01-07T13:08:57.575Z,12.10
2018-01-07T13:11:24.228Z,12.20
2018-01-07T13:13:50.888Z,12.30
2018-01-07T13:16:17.704Z,12.20
2018-01-07T13:18:45.619Z,12.30
2018-01-07T13:21:12.385Z,12.40
2018-01-07T13:23:39.055Z,12.30
2018-01-07T13:26:05.746Z,12.40
2018-01-07T13:28:32.546Z,12.50
2018-01-07T13:30:59.202Z,12.60
2018-01-07T13:33:26.011Z,12.60
2018-01-07T13:35:52.700Z,12.50
2018-01-07T13:38:19.529Z,12.40
2018-01-07T13:40:46.302Z,12.50
2018-01-07T13:43:15.589Z,12.70
2018-01-07T13:48:21.427Z,12.60
2018-01-07T13:50:48.099Z,12.70
2018-01-07T13:53:14.833Z,12.80
2018-01-07T13:55:41.508Z,12.90
2018-01-07T13:58:08.177Z,12.90
2018-01-07T14:00:35.022Z,12.90
2018-01-07T14:03:01.788Z,12.80
2018-01-07T14:05:39.349Z,12.90
2018-01-07T14:08:06.045Z,12.90
2018-01-07T14:10:33.645Z,12.80
2018-01-07T14:13:03.910Z,12.80
2018-01-07T14:15:33.682Z,13.00
2018-01-07T14:18:00.485Z,13.00
2018-01-07T14:20:27.705Z,13.00
2018-01-07T14:22:54.378Z,13.00
2018-01-07T14:25:21.067Z,13.10
2018-01-07T14:27:47.876Z,13.10
2018-01-07T14:30:14.575Z,13.10
2018-01-07T14:32:41.369Z,13.10
2018-01-07T14:35:08.252Z,13.10
2018-01-07T14:37:35.030Z,13.10
2018-01-07T14:40:02.094Z,13.20
2018-01-07T14:42:33.725Z,13.20
2018-01-07T14:45:00.919Z,13.20
2018-01-07T14:47:27.714Z,13.20
2018-01-07T14:49:54.386Z,13.10
2018-01-07T14:52:21.204Z,13.10
2018-01-07T14:54:51.759Z,13.30
2018-01-07T14:57:18.544Z,13.40
2018-01-07T14:59:45.236Z,13.40
2018-01-07T15:02:11.944Z,13.40
2018-01-07T15:04:38.626Z,13.50
2018-01-07T15:07:05.397Z,13.50
2018-01-07T15:09:39.179Z,13.40
2018-01-07T15:12:06.086Z,13.40
2018-01-07T15:14:33.782Z,13.40
2018-01-07T15:17:00.615Z,13.30
2018-01-07T15:19:27.451Z,13.20
2018-01-07T15:21:54.160Z,13.20
2018-01-07T15:24:20.878Z,13.20
2018-01-07T15:26:47.640Z,13.10
2018-01-07T15:29:14.850Z,13.20
2018-01-07T15:31:41.682Z,13.20
2018-01-07T15:34:08.621Z,13.40
2018-01-07T15:36:35.310Z,13.30
2018-01-07T15:39:02.415Z,13.50
2018-01-07T15:41:29.352Z,13.50
2018-01-07T15:43:56.169Z,13.50
2018-01-07T15:46:22.877Z,13.50
2018-01-07T15:48:49.556Z,13.50
2018-01-07T15:51:16.453Z,13.40
2018-01-07T15:53:43.233Z,13.40
2018-01-07T15:56:15.773Z,13.50
2018-01-07T15:58:42.507Z,13.70
2018-01-07T16:01:09.298Z,13.50
2018-01-07T16:03:39.790Z,13.50
2018-01-07T16:06:06.476Z,13.60
2018-01-07T16:08:33.250Z,13.70
2018-01-07T16:11:00.078Z,13.60
2018-01-07T16:13:27.169Z,13.80
2018-01-07T16:15:53.890Z,13.80
2018-01-07T16:18:20.721Z,13.70
2018-01-07T16:20:47.450Z,13.80
2018-01-07T16:23:14.159Z,13.70
2018-01-07T16:25:41.036Z,13.80
2018-01-07T16:28:07.766Z,13.70
2018-01-07T16:30:34.466Z,13.70
2018-01-07T16:33:01.168Z,13.70
2018-01-07T16:35:27.986Z,13.80
2018-01-07T16:37:54.831Z,13.70
2018-01-07T16:40:21.660Z,13.80
2018-01-07T16:42:48.664Z,13.80
2018-01-07T16:45:15.530Z,13.80
2018-01-07T16:47:42.381Z,13.80
2018-01-07T16:50:09.192Z,13.70
2018-01-07T16:55:15.581Z,13.70
2018-01-07T16:57:42.295Z,13.80
2018-01-07T17:00:09.047Z,13.70
2018-01-07T17:02:35.942Z,13.80
2018-01-07T17:05:02.756Z,13.80
2018-01-07T17:07:29.561Z,13.80
2018-01-07T17:09:56.335Z,13.90
2018-01-07T17:12:23.018Z,13.90
2018-01-07T17:14:49.875Z,14.00
2018-01-07T17:17:16.696Z,14.10
2018-01-07T17:19:43.543Z,14.10
2018-01-07T17:22:10.416Z,14.00
2018-01-07T17:24:37.231Z,13.90
2018-01-07T17:27:04.021Z,14.10
2018-01-07T17:29:30.764Z,14.10
2018-01-07T17:31:57.962Z,14.00
2018-01-07T17:34:24.793Z,14.00
2018-01-07T17:36:51.636Z,14.00
2018-01-07T17:39:21.682Z,13.90
2018-01-07T17:41:48.392Z,14.10
2018-01-07T17:44:15.216Z,14.00
2018-01-07T17:46:45.744Z,14.00
2018-01-07T17:51:51.730Z,14.10
2018-01-07T17:54:18.560Z,14.20
2018-01-07T17:56:45.425Z,14.20
2018-01-07T18:01:51.767Z,14.20
2018-01-07T18:04:18.495Z,14.40
2018-01-07T18:06:45.295Z,14.50
2018-01-07T18:09:12.091Z,14.40
2018-01-07T18:11:38.795Z,14.30
2018-01-07T18:14:05.599Z,14.50
2018-01-07T18:16:32.421Z,14.50
2018-01-07T18:18:59.201Z,14.30
2018-01-07T18:21:25.935Z,14.30
2018-01-07T18:23:52.763Z,14.20
2018-01-07T18:26:19.569Z,14.20
2018-01-07T18:28:46.300Z,14.20
2018-01-07T18:33:52.711Z,14.00
2018-01-07T18:36:19.482Z,13.90
2018-01-07T18:38:52.063Z,13.80
2018-01-07T18:41:21.748Z,13.70
2018-01-07T18:43:51.906Z,13.60
2018-01-07T18:46:21.797Z,13.60
2018-01-07T18:48:51.909Z,13.50
2018-01-07T18:51:19.019Z,13.50
2018-01-07T18:53:45.860Z,13.40
2018-01-07T18:56:12.655Z,13.30
2018-01-07T18:58:39.506Z,13.30
2018-01-07T19:01:06.341Z,13.30
2018-01-07T19:03:33.150Z,13.20
2018-01-07T19:06:00.044Z,13.20
2018-01-07T19:08:26.845Z,13.20
2018-01-07T19:10:53.606Z,13.10
2018-01-07T19:13:21.794Z,13.10
2018-01-07T19:15:48.644Z,13.10
2018-01-07T19:18:15.451Z,13.00
2018-01-07T19:20:42.290Z,13.00
2018-01-07T19:23:09.136Z,13.00
2018-01-07T19:25:35.996Z,12.90
2018-01-07T19:28:02.830Z,12.90
2018-01-07T19:30:29.699Z,12.80
2018-01-07T19:32:56.557Z,12.80
2018-01-07T19:35:23.327Z,12.80
2018-01-07T19:37:50.057Z,12.80
2018-01-07T19:40:17.236Z,12.70
2018-01-07T19:42:44.101Z,12.70
2018-01-07T19:45:10.920Z,12.70
2018-01-07T19:47:37.733Z,12.70
2018-01-07T19:50:04.494Z,12.60
2018-01-07T19:52:31.275Z,12.60
2018-01-07T19:54:58.119Z,12.60
2018-01-07T19:57:24.935Z,12.60
2018-01-07T19:59:51.813Z,12.60
2018-01-07T20:02:18.617Z,12.60
2018-01-07T20:04:45.432Z,12.50
2018-01-07T20:07:12.126Z,12.50
2018-01-07T20:12:21.924Z,12.50
2018-01-07T20:14:48.656Z,12.40
2018-01-07T20:17:15.803Z,12.40
2018-01-07T20:22:20.971Z,12.40
2018-01-07T20:27:26.309Z,12.40
2018-01-07T20:29:57.908Z,12.40
2018-01-07T20:32:27.780Z,12.30
2018-01-07T20:34:54.884Z,12.30
2018-01-07T20:37:21.888Z,12.30
2018-01-07T20:39:57.517Z,12.30
2018-01-07T20:42:33.361Z,12.20
2018-01-07T20:45:03.915Z,12.30
2018-01-07T20:47:30.630Z,12.20
2018-01-07T20:50:09.657Z,12.20
2018-01-07T20:55:15.883Z,12.20
2018-01-07T20:57:42.714Z,12.20
2018-01-07T21:00:09.525Z,12.20
2018-01-07T21:02:36.267Z,12.20
2018-01-07T21:05:03.418Z,12.10
2018-01-07T21:07:33.973Z,12.10
2018-01-07T21:10:00.787Z,12.10
2018-01-07T21:12:27.516Z,12.10
2018-01-07T21:14:54.718Z,12.00
2018-01-07T21:17:21.510Z,12.00
2018-01-07T21:19:48.237Z,12.00
2018-01-07T21:22:14.987Z,12.00
2018-01-07T21:24:41.691Z,12.10
2018-01-07T21:27:08.466Z,12.00
2018-01-07T21:32:15.881Z,12.00
2018-01-07T21:34:45.837Z,12.00
2018-01-07T21:37:12.636Z,12.00
2018-01-07T21:39:39.368Z,12.00
2018-01-07T21:42:06.528Z,12.00
2018-01-07T21:44:33.236Z,11.90
2018-01-07T21:47:00.016Z,11.90
2018-01-07T21:49:26.889Z,11.90
2018-01-07T21:51:53.696Z,11.90
2018-01-07T21:54:20.421Z,11.90
2018-01-07T21:56:47.590Z,11.90
2018-01-07T21:59:14.455Z,11.90
2018-01-07T22:01:41.309Z,11.90
2018-01-07T22:04:08.122Z,11.90
2018-01-07T22:06:34.970Z,11.80
2018-01-07T22:09:01.840Z,11.80
2018-01-07T22:11:28.634Z,11.80
2018-01-07T22:13:55.462Z,11.80
2018-01-07T22:16:22.153Z,11.80
2018-01-07T22:18:48.938Z,11.80
2018-01-07T22:21:15.678Z,11.80
2018-01-07T22:23:42.827Z,11.80
2018-01-07T22:26:09.915Z,11.80
2018-01-07T22:28:40.006Z,11.80
2018-01-07T22:31:09.950Z,11.70
2018-01-07T22:33:36.810Z,11.70
2018-01-07T22:36:03.626Z,11.70
2018-01-07T22:38:33.966Z,11.70
2018-01-07T22:41:00.742Z,11.70
2018-01-07T22:43:28.031Z,11.70
2018-01-07T22:45:54.840Z,11.70
2018-01-07T22:48:27.862Z,11.70
2018-01-07T22:50:54.684Z,11.70
2018-01-07T22:53:21.388Z,11.70
2018-01-07T22:55:48.170Z,11.60
2018-01-07T22:58:16.065Z,11.60
2018-01-07T23:00:42.849Z,11.60
2018-01-07T23:03:09.537Z,11.60
2018-01-07T23:05:36.388Z,11.60
2018-01-07T23:08:03.164Z,11.60
2018-01-07T23:10:29.876Z,11.60
2018-01-07T23:12:56.651Z,11.60
2018-01-07T23:15:23.361Z,11.60
2018-01-07T23:17:50.150Z,11.60
2018-01-07T23:20:16.869Z,11.60
2018-01-07T23:22:44.016Z,11.50
2018-01-07T23:25:10.706Z,11.60
2018-01-07T23:27:37.514Z,11.50
2018-01-07T23:30:15.592Z,11.50
2018-01-07T23:32:42.274Z,11.50
2018-01-07T23:35:09.122Z,11.50
2018-01-07T23:37:35.909Z,11.50
2018-01-07T23:40:02.613Z,11.50
2018-01-07T23:42:29.412Z,11.50
2018-01-07T23:44:57.888Z,11.50
2018-01-07T23:47:28.028Z,11.50
2018-01-07T23:49:54.861Z,11.50
2018-01-07T23:52:33.607Z,11.50
2018-01-07T23:55:00.663Z,11.40
2018-01-07T23:57:27.425Z,11.40
2018-01-07T23:59:54.084Z,11.40
